createdAt,value
2018-05-18T00:01:13.169Z,78.38
2018-05-18T00:06:06.613Z,78.39
2018-05-18T00:11:00.782Z,78.20
2018-05-18T00:15:54.185Z,78.31
2018-05-18T00:20:47.621Z,78.55
2018-05-18T00:25:42.055Z,78.21
2018-05-18T00:30:35.521Z,79.31
2018-05-18T00:35:29.672Z,79.85
2018-05-18T00:40:23.078Z,79.78
2018-05-18T00:45:16.527Z,79.87
2018-05-18T00:50:10.979Z,79.80
2018-05-18T00:55:11.553Z,80.21
2018-05-18T01:00:05.048Z,79.58
2018-05-18T01:04:59.232Z,79.61
2018-05-18T01:09:53.429Z,79.40
2018-05-18T01:14:47.754Z,79.46
2018-05-18T01:19:41.193Z,79.52
2018-05-18T01:24:34.710Z,79.57
2018-05-18T01:29:28.360Z,78.91
2018-05-18T01:34:22.697Z,78.82
2018-05-18T01:39:16.111Z,78.50
2018-05-18T01:44:10.300Z,78.82
2018-05-18T01:49:03.775Z,79.14
2018-05-18T01:53:57.210Z,78.58
2018-05-18T01:58:50.719Z,78.65
2018-05-18T02:03:44.281Z,78.71
2018-05-18T02:08:37.712Z,78.86
2018-05-18T02:13:31.168Z,79.22
2018-05-18T02:18:24.671Z,79.23
2018-05-18T02:23:18.126Z,79.20
2018-05-18T02:28:12.279Z,79.46
2018-05-18T02:33:05.787Z,79.59
2018-05-18T02:37:59.700Z,79.43
2018-05-18T02:42:53.227Z,79.12
2018-05-18T02:47:47.351Z,78.79
2018-05-18T02:52:41.186Z,78.25
2018-05-18T02:57:34.639Z,78.06
2018-05-18T03:02:29.158Z,77.47
2018-05-18T03:07:22.860Z,77.80
2018-05-18T03:12:16.715Z,78.26
2018-05-18T03:17:10.949Z,78.11
2018-05-18T03:22:04.433Z,78.23
2018-05-18T03:26:58.465Z,78.42
2018-05-18T03:31:51.955Z,78.29
2018-05-18T03:36:45.425Z,78.37
2018-05-18T03:41:39.374Z,78.64
2018-05-18T03:46:32.831Z,78.73
2018-05-18T03:51:26.492Z,78.42
2018-05-18T03:56:20.248Z,78.03
2018-05-18T04:01:31.516Z,78.23
2018-05-18T04:06:42.551Z,78.11
2018-05-18T04:11:36.026Z,77.99
2018-05-18T04:16:30.245Z,78.09
2018-05-18T04:21:23.714Z,78.18
2018-05-18T04:26:17.752Z,78.19
2018-05-18T04:31:11.413Z,77.95
2018-05-18T04:36:04.876Z,77.74
2018-05-18T04:40:58.631Z,77.60
2018-05-18T04:45:52.424Z,77.31
2018-05-18T04:50:45.859Z,77.67
2018-05-18T04:55:39.305Z,77.48
2018-05-18T05:00:32.761Z,77.20
2018-05-18T05:05:26.991Z,77.50
2018-05-18T05:10:20.469Z,77.46
2018-05-18T05:15:14.874Z,77.55
2018-05-18T05:20:09.174Z,77.14
2018-05-18T05:25:03.438Z,76.97
2018-05-18T05:29:57.702Z,76.96
2018-05-18T05:34:51.271Z,76.64
2018-05-18T05:39:44.803Z,76.21
2018-05-18T05:44:38.251Z,75.92
2018-05-18T05:49:31.760Z,75.59
2018-05-18T05:54:25.658Z,75.11
2018-05-18T05:59:19.078Z,75.03
2018-05-18T06:04:12.520Z,74.62
2018-05-18T06:09:05.994Z,73.13
2018-05-18T06:13:59.414Z,72.93
2018-05-18T06:18:53.605Z,73.05
2018-05-18T06:23:49.560Z,73.24
2018-05-18T06:28:43.271Z,73.26
2018-05-18T06:33:37.438Z,72.59
2018-05-18T06:38:37.621Z,71.55
2018-05-18T06:43:48.326Z,70.21
2018-05-18T06:48:42.794Z,70.04
2018-05-18T06:53:36.258Z,69.98
2018-05-18T06:58:43.923Z,69.75
2018-05-18T07:03:38.495Z,69.21
2018-05-18T07:08:32.033Z,68.51
2018-05-18T07:13:32.925Z,65.83
2018-05-18T07:18:31.204Z,64.94
2018-05-18T07:23:25.116Z,65.68
2018-05-18T07:28:18.576Z,66.12
2018-05-18T07:33:13.531Z,66.70
2018-05-18T07:38:07.064Z,66.34
2018-05-18T07:43:03.487Z,66.80
2018-05-18T07:47:57.148Z,65.62
2018-05-18T07:52:50.787Z,64.26
2018-05-18T07:57:44.223Z,64.41
2018-05-18T08:02:40.479Z,63.98
2018-05-18T08:07:34.616Z,62.56
2018-05-18T08:12:30.614Z,62.56
2018-05-18T08:17:24.369Z,62.15
2018-05-18T08:22:18.016Z,62.26
2018-05-18T08:27:23.473Z,60.65
2018-05-18T08:32:16.864Z,60.05
2018-05-18T08:37:10.307Z,58.71
2018-05-18T08:42:04.607Z,58.54
2018-05-18T08:46:58.198Z,58.78
2018-05-18T08:51:52.057Z,59.69
2018-05-18T08:56:46.429Z,60.01
2018-05-18T09:01:40.157Z,59.22
2018-05-18T09:06:33.722Z,59.51
2018-05-18T09:11:33.610Z,60.14
2018-05-18T09:16:28.582Z,58.93
2018-05-18T09:21:23.035Z,56.80
2018-05-18T09:26:16.489Z,57.02
2018-05-18T09:31:10.736Z,57.18
2018-05-18T09:36:07.223Z,56.33
2018-05-18T09:41:02.196Z,53.94
2018-05-18T09:45:57.510Z,54.89
2018-05-18T09:50:54.584Z,51.86
2018-05-18T09:55:51.249Z,52.96
2018-05-18T10:00:53.396Z,51.86
2018-05-18T10:05:53.377Z,51.56
2018-05-18T10:10:52.731Z,52.34
2018-05-18T10:15:53.290Z,52.71
2018-05-18T10:20:53.169Z,54.64
2018-05-18T10:25:52.764Z,52.72
2018-05-18T10:30:50.562Z,52.12
2018-05-18T10:35:50.614Z,50.65
2018-05-18T10:40:46.616Z,50.45
2018-05-18T10:45:40.307Z,49.33
2018-05-18T10:50:33.817Z,47.02
2018-05-18T10:55:27.587Z,47.90
2018-05-18T11:00:21.074Z,46.98
2018-05-18T11:05:20.555Z,46.46
2018-05-18T11:10:14.519Z,45.20
2018-05-18T11:15:15.415Z,45.27
2018-05-18T11:20:09.660Z,45.82
2018-05-18T11:25:11.220Z,45.88
2018-05-18T11:30:12.480Z,47.62
2018-05-18T11:46:04.808Z,47.77
2018-05-18T11:56:28.375Z,48.76
2018-05-18T12:01:22.159Z,48.25
2018-05-18T12:06:16.758Z,46.96
2018-05-18T12:11:11.276Z,46.06
2018-05-18T12:16:09.327Z,44.26
2018-05-18T12:26:31.872Z,47.77
2018-05-18T12:31:31.534Z,46.21
2018-05-18T12:36:25.866Z,47.00
2018-05-18T12:41:20.285Z,43.44
2018-05-18T12:46:15.767Z,42.70
2018-05-18T12:51:10.714Z,40.89
2018-05-18T12:56:04.276Z,40.07
2018-05-18T13:00:57.821Z,39.52
2018-05-18T13:05:51.780Z,37.46
2018-05-18T13:10:45.389Z,36.22
2018-05-18T13:15:40.721Z,39.05
2018-05-18T13:20:34.553Z,40.50
2018-05-18T13:25:28.474Z,40.48
2018-05-18T13:30:23.552Z,39.17
2018-05-18T13:35:17.740Z,37.59
2018-05-18T13:40:15.008Z,40.33
2018-05-18T13:45:12.009Z,39.73
2018-05-18T13:50:07.406Z,38.61
2018-05-18T13:55:04.768Z,38.46
2018-05-18T14:16:28.959Z,41.27
2018-05-18T14:26:57.470Z,41.85
2018-05-18T14:37:22.726Z,40.18
2018-05-18T14:42:19.051Z,39.39
2018-05-18T14:47:14.385Z,39.22
2018-05-18T14:52:13.172Z,38.51
2018-05-18T15:08:04.552Z,36.88
2018-05-18T15:12:59.226Z,37.27
2018-05-18T15:17:53.683Z,36.91
2018-05-18T15:22:47.452Z,38.00
2018-05-18T15:27:41.050Z,38.53
2018-05-18T15:32:34.502Z,38.50
2018-05-18T15:37:30.002Z,39.41
2018-05-18T15:42:23.463Z,40.54
2018-05-18T15:47:16.913Z,42.15
2018-05-18T15:52:10.508Z,41.75
2018-05-18T15:57:04.109Z,42.01
2018-05-18T16:01:58.278Z,43.97
2018-05-18T16:06:51.739Z,45.64
2018-05-18T16:11:45.406Z,46.15
2018-05-18T16:16:39.350Z,46.20
2018-05-18T16:21:32.779Z,46.25
2018-05-18T16:26:26.171Z,45.67
2018-05-18T16:31:19.621Z,46.35
2018-05-18T16:36:13.051Z,46.26
2018-05-18T16:41:06.514Z,45.91
2018-05-18T16:45:59.993Z,45.54
2018-05-18T16:50:53.461Z,47.03
2018-05-18T16:55:47.326Z,47.19
2018-05-18T17:00:40.759Z,46.82
2018-05-18T17:05:34.224Z,46.78
2018-05-18T17:10:27.610Z,46.88
2018-05-18T17:15:21.837Z,46.58
2018-05-18T17:20:15.261Z,46.25
2018-05-18T17:25:09.741Z,45.81
2018-05-18T17:30:03.364Z,45.80
2018-05-18T17:34:56.793Z,48.93
2018-05-18T17:39:50.237Z,50.18
2018-05-18T17:44:43.704Z,52.30
2018-05-18T17:49:37.307Z,54.11
2018-05-18T17:54:30.838Z,55.55
2018-05-18T17:59:24.998Z,55.03
2018-05-18T18:04:18.467Z,54.16
2018-05-18T18:09:12.745Z,54.05
2018-05-18T18:14:06.356Z,54.21
2018-05-18T18:18:59.757Z,54.25
2018-05-18T18:23:54.075Z,54.33
2018-05-18T18:28:47.604Z,54.55
2018-05-18T18:33:40.964Z,55.18
2018-05-18T18:38:35.464Z,55.68
2018-05-18T18:43:29.694Z,56.57
2018-05-18T18:48:23.185Z,57.82
2018-05-18T18:53:16.621Z,59.88
2018-05-18T18:58:10.993Z,61.59
2018-05-18T19:03:04.783Z,62.00
2018-05-18T19:07:58.321Z,61.82
2018-05-18T19:12:52.429Z,61.00
2018-05-18T19:17:46.623Z,60.69
2018-05-18T19:22:40.858Z,58.83
2018-05-18T19:27:34.609Z,57.50
2018-05-18T19:32:28.067Z,58.39
2018-05-18T19:37:22.300Z,58.15
2018-05-18T19:42:15.754Z,58.10
2018-05-18T19:47:09.169Z,59.42
2018-05-18T19:52:02.654Z,59.42
2018-05-18T19:56:56.094Z,60.23
2018-05-18T20:01:49.542Z,60.39
2018-05-18T20:06:42.995Z,60.88
2018-05-18T20:11:37.169Z,61.34
2018-05-18T20:16:31.652Z,61.76
2018-05-18T20:21:25.166Z,61.75
2018-05-18T20:26:18.726Z,61.99
2018-05-18T20:31:13.012Z,62.31
2018-05-18T20:36:07.257Z,62.81
2018-05-18T20:41:00.925Z,62.91
2018-05-18T20:45:54.346Z,63.55
2018-05-18T20:50:47.812Z,64.13
2018-05-18T20:55:42.038Z,64.78
2018-05-18T21:00:35.482Z,64.85
2018-05-18T21:05:29.778Z,64.95
2018-05-18T21:10:23.985Z,64.72
2018-05-18T21:15:17.475Z,64.83
2018-05-18T21:20:10.923Z,64.79
2018-05-18T21:25:04.462Z,65.30
2018-05-18T21:29:57.920Z,64.48
2018-05-18T21:34:51.347Z,59.89
2018-05-18T21:39:45.556Z,61.74
2018-05-18T21:44:38.978Z,61.14
2018-05-18T21:49:33.417Z,60.53
2018-05-18T21:54:26.867Z,60.42
2018-05-18T21:59:20.406Z,61.86
2018-05-18T22:04:13.891Z,64.18
2018-05-18T22:09:07.623Z,64.85
2018-05-18T22:14:01.209Z,64.82
2018-05-18T22:18:54.734Z,65.36
2018-05-18T22:23:49.137Z,65.78
2018-05-18T22:28:42.590Z,66.16
2018-05-18T22:33:36.051Z,66.20
2018-05-18T22:38:30.260Z,66.18
2018-05-18T22:43:23.691Z,67.13
2018-05-18T22:48:17.318Z,66.55
2018-05-18T22:53:11.571Z,66.49
2018-05-18T22:58:05.890Z,66.47
2018-05-18T23:03:00.240Z,67.04
2018-05-18T23:07:53.690Z,66.63
2018-05-18T23:12:47.120Z,66.99
2018-05-18T23:17:40.507Z,67.47
2018-05-18T23:22:35.007Z,67.86
2018-05-18T23:27:29.347Z,68.17
2018-05-18T23:32:22.878Z,67.87
2018-05-18T23:37:16.330Z,68.14
2018-05-18T23:42:10.526Z,68.02
2018-05-18T23:47:04.840Z,68.39
2018-05-18T23:51:58.364Z,68.72
2018-05-18T23:56:51.829Z,68.40
